sensor_id;sensor_type;location;lat;lon;timestamp;temperature;humidity
68493;HTU21D;55483;51.106;5.984;2023-05-21T00:02:16;15.12;93.28
68493;HTU21D;55483;51.106;5.984;2023-05-21T00:04:46;15.10;93.49
68493;HTU21D;55483;51.106;5.984;2023-05-21T00:07:12;15.08;93.43
68493;HTU21D;55483;51.106;5.984;2023-05-21T00:09:38;15.12;93.02
68493;HTU21D;55483;51.106;5.984;2023-05-21T00:12:05;15.17;92.67
68493;HTU21D;55483;51.106;5.984;2023-05-21T00:14:31;15.22;92.16
68493;HTU21D;55483;51.106;5.984;2023-05-21T00:16:56;15.22;92.25
68493;HTU21D;55483;51.106;5.984;2023-05-21T00:19:23;15.22;92.65
68493;HTU21D;55483;51.106;5.984;2023-05-21T00:21:48;15.17;93.08
68493;HTU21D;55483;51.106;5.984;2023-05-21T00:24:16;15.16;93.56
68493;HTU21D;55483;51.106;5.984;2023-05-21T00:26:41;15.06;93.89
68493;HTU21D;55483;51.106;5.984;2023-05-21T00:29:07;15.03;94.61
68493;HTU21D;55483;51.106;5.984;2023-05-21T00:31:32;15.07;94.20
68493;HTU21D;55483;51.106;5.984;2023-05-21T00:33:58;15.09;93.83
68493;HTU21D;55483;51.106;5.984;2023-05-21T00:36:23;15.10;93.95
68493;HTU21D;55483;51.106;5.984;2023-05-21T00:38:50;15.06;94.84
68493;HTU21D;55483;51.106;5.984;2023-05-21T00:41:16;15.04;95.55
68493;HTU21D;55483;51.106;5.984;2023-05-21T00:43:42;14.99;96.07
68493;HTU21D;55483;51.106;5.984;2023-05-21T00:46:14;14.92;96.67
68493;HTU21D;55483;51.106;5.984;2023-05-21T00:48:43;14.84;97.64
68493;HTU21D;55483;51.106;5.984;2023-05-21T00:51:09;14.81;98.18
68493;HTU21D;55483;51.106;5.984;2023-05-21T00:53:35;14.80;98.41
68493;HTU21D;55483;51.106;5.984;2023-05-21T00:56:02;14.80;98.74
68493;HTU21D;55483;51.106;5.984;2023-05-21T00:58:28;14.80;98.58
68493;HTU21D;55483;51.106;5.984;2023-05-21T01:00:54;14.78;98.92
68493;HTU21D;55483;51.106;5.984;2023-05-21T01:03:23;14.74;99.72
68493;HTU21D;55483;51.106;5.984;2023-05-21T01:05:50;14.75;100.42
68493;HTU21D;55483;51.106;5.984;2023-05-21T01:08:19;14.75;100.81
68493;HTU21D;55483;51.106;5.984;2023-05-21T01:10:49;14.80;100.83
68493;HTU21D;55483;51.106;5.984;2023-05-21T01:13:15;14.84;100.19
68493;HTU21D;55483;51.106;5.984;2023-05-21T01:15:45;14.91;99.51
68493;HTU21D;55483;51.106;5.984;2023-05-21T01:18:12;14.94;99.13
68493;HTU21D;55483;51.106;5.984;2023-05-21T01:20:39;14.95;99.03
68493;HTU21D;55483;51.106;5.984;2023-05-21T01:23:06;14.97;98.67
68493;HTU21D;55483;51.106;5.984;2023-05-21T01:25:33;15.00;98.41
68493;HTU21D;55483;51.106;5.984;2023-05-21T01:27:59;15.01;98.29
68493;HTU21D;55483;51.106;5.984;2023-05-21T01:30:25;15.01;98.69
68493;HTU21D;55483;51.106;5.984;2023-05-21T01:33:03;15.01;98.48
68493;HTU21D;55483;51.106;5.984;2023-05-21T01:35:35;15.03;98.55
68493;HTU21D;55483;51.106;5.984;2023-05-21T01:38:17;15.01;98.66
68493;HTU21D;55483;51.106;5.984;2023-05-21T01:41:09;15.00;98.82
68493;HTU21D;55483;51.106;5.984;2023-05-21T01:43:38;15.03;98.42
68493;HTU21D;55483;51.106;5.984;2023-05-21T01:46:06;15.03;98.29
68493;HTU21D;55483;51.106;5.984;2023-05-21T01:48:35;15.06;98.26
68493;HTU21D;55483;51.106;5.984;2023-05-21T01:51:03;15.04;98.26
68493;HTU21D;55483;51.106;5.984;2023-05-21T01:53:30;15.03;98.51
68493;HTU21D;55483;51.106;5.984;2023-05-21T01:55:55;15.02;98.42
68493;HTU21D;55483;51.106;5.984;2023-05-21T01:58:21;14.99;98.65
68493;HTU21D;55483;51.106;5.984;2023-05-21T02:00:47;14.98;99.14
68493;HTU21D;55483;51.106;5.984;2023-05-21T02:03:16;14.97;99.53
68493;HTU21D;55483;51.106;5.984;2023-05-21T02:05:42;14.99;99.67
68493;HTU21D;55483;51.106;5.984;2023-05-21T02:08:08;14.97;100.00
68493;HTU21D;55483;51.106;5.984;2023-05-21T02:10:34;14.94;100.85
68493;HTU21D;55483;51.106;5.984;2023-05-21T02:13:00;14.94;101.47
68493;HTU21D;55483;51.106;5.984;2023-05-21T02:15:25;14.96;101.41
68493;HTU21D;55483;51.106;5.984;2023-05-21T02:17:51;14.92;101.41
68493;HTU21D;55483;51.106;5.984;2023-05-21T02:20:17;14.85;102.17
68493;HTU21D;55483;51.106;5.984;2023-05-21T02:22:47;14.81;103.00
68493;HTU21D;55483;51.106;5.984;2023-05-21T02:25:15;14.79;103.59
68493;HTU21D;55483;51.106;5.984;2023-05-21T02:27:41;14.77;104.09
68493;HTU21D;55483;51.106;5.984;2023-05-21T02:30:09;14.72;104.57
68493;HTU21D;55483;51.106;5.984;2023-05-21T02:32:36;14.72;104.37
68493;HTU21D;55483;51.106;5.984;2023-05-21T02:35:03;14.68;105.11
68493;HTU21D;55483;51.106;5.984;2023-05-21T02:37:31;14.66;105.79
68493;HTU21D;55483;51.106;5.984;2023-05-21T02:40:01;14.64;106.46
68493;HTU21D;55483;51.106;5.984;2023-05-21T02:42:29;14.64;106.49
68493;HTU21D;55483;51.106;5.984;2023-05-21T02:44:54;14.64;106.35
68493;HTU21D;55483;51.106;5.984;2023-05-21T02:47:22;14.60;106.51
68493;HTU21D;55483;51.106;5.984;2023-05-21T02:49:51;14.57;107.64
68493;HTU21D;55483;51.106;5.984;2023-05-21T02:52:18;14.55;108.48
68493;HTU21D;55483;51.106;5.984;2023-05-21T02:54:44;14.57;108.94
68493;HTU21D;55483;51.106;5.984;2023-05-21T02:57:10;14.62;108.97
68493;HTU21D;55483;51.106;5.984;2023-05-21T02:59:36;14.63;108.97
68493;HTU21D;55483;51.106;5.984;2023-05-21T03:02:01;14.69;109.09
68493;HTU21D;55483;51.106;5.984;2023-05-21T03:04:27;14.74;108.40
68493;HTU21D;55483;51.106;5.984;2023-05-21T03:06:53;14.81;107.89
68493;HTU21D;55483;51.106;5.984;2023-05-21T03:09:20;14.82;107.08
68493;HTU21D;55483;51.106;5.984;2023-05-21T03:11:46;14.81;106.96
68493;HTU21D;55483;51.106;5.984;2023-05-21T03:14:12;14.77;107.27
68493;HTU21D;55483;51.106;5.984;2023-05-21T03:16:39;14.77;108.10
68493;HTU21D;55483;51.106;5.984;2023-05-21T03:19:10;14.81;107.66
68493;HTU21D;55483;51.106;5.984;2023-05-21T03:21:36;14.82;107.60
68493;HTU21D;55483;51.106;5.984;2023-05-21T03:24:03;14.81;107.89
68493;HTU21D;55483;51.106;5.984;2023-05-21T03:26:29;14.81;108.37
68493;HTU21D;55483;51.106;5.984;2023-05-21T03:28:56;14.84;108.17
68493;HTU21D;55483;51.106;5.984;2023-05-21T03:31:23;14.83;107.98
68493;HTU21D;55483;51.106;5.984;2023-05-21T03:34:02;14.82;108.20
68493;HTU21D;55483;51.106;5.984;2023-05-21T03:36:30;14.82;108.06
68493;HTU21D;55483;51.106;5.984;2023-05-21T03:38:57;14.77;108.67
68493;HTU21D;55483;51.106;5.984;2023-05-21T03:41:23;14.74;109.23
68493;HTU21D;55483;51.106;5.984;2023-05-21T03:43:53;14.74;109.61
68493;HTU21D;55483;51.106;5.984;2023-05-21T03:46:22;14.72;109.29
68493;HTU21D;55483;51.106;5.984;2023-05-21T03:48:58;14.69;109.76
68493;HTU21D;55483;51.106;5.984;2023-05-21T03:51:26;14.67;109.81
68493;HTU21D;55483;51.106;5.984;2023-05-21T03:53:52;14.62;110.74
68493;HTU21D;55483;51.106;5.984;2023-05-21T03:56:18;14.59;111.36
68493;HTU21D;55483;51.106;5.984;2023-05-21T03:58:43;14.63;111.89
68493;HTU21D;55483;51.106;5.984;2023-05-21T04:01:09;14.68;111.89
68493;HTU21D;55483;51.106;5.984;2023-05-21T04:03:36;14.67;111.47
68493;HTU21D;55483;51.106;5.984;2023-05-21T04:06:02;14.64;111.73
68493;HTU21D;55483;51.106;5.984;2023-05-21T04:08:28;14.68;112.35
68493;HTU21D;55483;51.106;5.984;2023-05-21T04:10:54;14.67;111.91
68493;HTU21D;55483;51.106;5.984;2023-05-21T04:13:19;14.64;111.74
68493;HTU21D;55483;51.106;5.984;2023-05-21T04:15:46;14.59;113.16
68493;HTU21D;55483;51.106;5.984;2023-05-21T04:18:13;14.60;113.00
68493;HTU21D;55483;51.106;5.984;2023-05-21T04:20:41;14.58;114.08
68493;HTU21D;55483;51.106;5.984;2023-05-21T04:23:07;14.60;113.99
68493;HTU21D;55483;51.106;5.984;2023-05-21T04:25:33;14.63;114.27
68493;HTU21D;55483;51.106;5.984;2023-05-21T04:28:00;14.66;114.03
68493;HTU21D;55483;51.106;5.984;2023-05-21T04:30:26;14.70;113.93
68493;HTU21D;55483;51.106;5.984;2023-05-21T04:32:52;14.70;114.08
68493;HTU21D;55483;51.106;5.984;2023-05-21T04:35:19;14.74;113.80
68493;HTU21D;55483;51.106;5.984;2023-05-21T04:37:44;14.81;113.09
68493;HTU21D;55483;51.106;5.984;2023-05-21T04:40:13;14.83;113.44
68493;HTU21D;55483;51.106;5.984;2023-05-21T04:42:43;14.93;113.43
68493;HTU21D;55483;51.106;5.984;2023-05-21T04:45:11;15.00;112.32
68493;HTU21D;55483;51.106;5.984;2023-05-21T04:47:39;15.00;111.61
68493;HTU21D;55483;51.106;5.984;2023-05-21T04:50:05;15.03;111.04
68493;HTU21D;55483;51.106;5.984;2023-05-21T04:52:31;15.03;111.07
68493;HTU21D;55483;51.106;5.984;2023-05-21T04:54:57;15.08;111.49
68493;HTU21D;55483;51.106;5.984;2023-05-21T04:57:23;15.11;111.12
68493;HTU21D;55483;51.106;5.984;2023-05-21T04:59:49;15.16;109.92
68493;HTU21D;55483;51.106;5.984;2023-05-21T05:02:15;15.17;109.78
68493;HTU21D;55483;51.106;5.984;2023-05-21T05:04:41;15.12;109.75
68493;HTU21D;55483;51.106;5.984;2023-05-21T05:07:08;15.10;110.46
68493;HTU21D;55483;51.106;5.984;2023-05-21T05:09:34;15.08;110.94
68493;HTU21D;55483;51.106;5.984;2023-05-21T05:12:00;15.09;111.68
68493;HTU21D;55483;51.106;5.984;2023-05-21T05:14:26;15.18;110.78
68493;HTU21D;55483;51.106;5.984;2023-05-21T05:16:51;15.25;111.04
68493;HTU21D;55483;51.106;5.984;2023-05-21T05:19:19;15.30;111.07
68493;HTU21D;55483;51.106;5.984;2023-05-21T05:21:46;15.36;109.51
68493;HTU21D;55483;51.106;5.984;2023-05-21T05:24:12;15.38;109.25
68493;HTU21D;55483;51.106;5.984;2023-05-21T05:26:38;15.42;108.56
68493;HTU21D;55483;51.106;5.984;2023-05-21T05:29:04;15.46;108.46
68493;HTU21D;55483;51.106;5.984;2023-05-21T05:31:29;15.48;108.14
68493;HTU21D;55483;51.106;5.984;2023-05-21T05:33:55;15.55;108.61
68493;HTU21D;55483;51.106;5.984;2023-05-21T05:36:23;15.59;108.23
68493;HTU21D;55483;51.106;5.984;2023-05-21T05:38:48;15.67;107.32
68493;HTU21D;55483;51.106;5.984;2023-05-21T05:41:15;15.76;106.98
68493;HTU21D;55483;51.106;5.984;2023-05-21T05:43:40;15.89;106.21
68493;HTU21D;55483;51.106;5.984;2023-05-21T05:46:06;16.01;104.77
68493;HTU21D;55483;51.106;5.984;2023-05-21T05:48:32;16.20;104.53
68493;HTU21D;55483;51.106;5.984;2023-05-21T05:50:58;16.39;102.97
68493;HTU21D;55483;51.106;5.984;2023-05-21T05:53:25;16.51;100.64
68493;HTU21D;55483;51.106;5.984;2023-05-21T05:55:51;16.60;99.20
68493;HTU21D;55483;51.106;5.984;2023-05-21T05:58:17;16.72;97.18
68493;HTU21D;55483;51.106;5.984;2023-05-21T06:00:56;16.82;96.88
68493;HTU21D;55483;51.106;5.984;2023-05-21T06:03:23;16.98;95.03
68493;HTU21D;55483;51.106;5.984;2023-05-21T06:05:51;17.17;94.14
68493;HTU21D;55483;51.106;5.984;2023-05-21T06:08:16;17.55;92.38
68493;HTU21D;55483;51.106;5.984;2023-05-21T06:10:44;17.99;88.07
68493;HTU21D;55483;51.106;5.984;2023-05-21T06:13:10;18.23;85.71
68493;HTU21D;55483;51.106;5.984;2023-05-21T06:15:35;18.46;82.77
68493;HTU21D;55483;51.106;5.984;2023-05-21T06:18:01;18.61;82.22
68493;HTU21D;55483;51.106;5.984;2023-05-21T06:20:27;18.78;81.26
68493;HTU21D;55483;51.106;5.984;2023-05-21T06:22:54;18.97;78.37
68493;HTU21D;55483;51.106;5.984;2023-05-21T06:25:20;19.07;78.54
68493;HTU21D;55483;51.106;5.984;2023-05-21T06:27:47;19.38;77.31
68493;HTU21D;55483;51.106;5.984;2023-05-21T06:30:18;19.51;75.06
68493;HTU21D;55483;51.106;5.984;2023-05-21T06:32:44;19.63;73.26
68493;HTU21D;55483;51.106;5.984;2023-05-21T06:35:10;19.66;73.98
68493;HTU21D;55483;51.106;5.984;2023-05-21T06:37:36;20.01;72.93
68493;HTU21D;55483;51.106;5.984;2023-05-21T06:40:01;20.17;71.87
68493;HTU21D;55483;51.106;5.984;2023-05-21T06:42:28;20.46;70.22
68493;HTU21D;55483;51.106;5.984;2023-05-21T06:45:22;20.58;69.00
68493;HTU21D;55483;51.106;5.984;2023-05-21T06:47:51;20.56;67.95
68493;HTU21D;55483;51.106;5.984;2023-05-21T06:50:17;20.69;69.23
68493;HTU21D;55483;51.106;5.984;2023-05-21T06:52:43;20.86;66.41
68493;HTU21D;55483;51.106;5.984;2023-05-21T06:55:09;20.77;67.04
68493;HTU21D;55483;51.106;5.984;2023-05-21T06:57:57;20.93;67.62
68493;HTU21D;55483;51.106;5.984;2023-05-21T07:00:23;21.10;66.36
68493;HTU21D;55483;51.106;5.984;2023-05-21T07:02:49;21.27;65.64
68493;HTU21D;55483;51.106;5.984;2023-05-21T07:05:14;21.48;64.92
68493;HTU21D;55483;51.106;5.984;2023-05-21T07:07:40;21.62;64.32
68493;HTU21D;55483;51.106;5.984;2023-05-21T07:10:07;21.79;63.58
68493;HTU21D;55483;51.106;5.984;2023-05-21T07:12:33;21.97;62.65
68493;HTU21D;55483;51.106;5.984;2023-05-21T07:14:58;22.11;61.63
68493;HTU21D;55483;51.106;5.984;2023-05-21T07:17:24;22.18;60.99
68493;HTU21D;55483;51.106;5.984;2023-05-21T07:19:50;22.22;60.31
68493;HTU21D;55483;51.106;5.984;2023-05-21T07:22:16;22.08;60.44
68493;HTU21D;55483;51.106;5.984;2023-05-21T07:24:42;22.19;60.98
68493;HTU21D;55483;51.106;5.984;2023-05-21T07:27:07;22.38;60.39
68493;HTU21D;55483;51.106;5.984;2023-05-21T07:29:33;22.63;58.58
68493;HTU21D;55483;51.106;5.984;2023-05-21T07:31:58;22.79;58.37
68493;HTU21D;55483;51.106;5.984;2023-05-21T07:34:24;22.83;57.36
68493;HTU21D;55483;51.106;5.984;2023-05-21T07:36:50;22.62;57.48
68493;HTU21D;55483;51.106;5.984;2023-05-21T07:39:17;22.60;58.07
68493;HTU21D;55483;51.106;5.984;2023-05-21T07:41:43;22.62;57.98
68493;HTU21D;55483;51.106;5.984;2023-05-21T07:44:08;22.62;57.87
68493;HTU21D;55483;51.106;5.984;2023-05-21T07:46:38;22.56;58.22
68493;HTU21D;55483;51.106;5.984;2023-05-21T07:49:04;22.62;58.54
68493;HTU21D;55483;51.106;5.984;2023-05-21T07:51:30;22.62;57.74
68493;HTU21D;55483;51.106;5.984;2023-05-21T07:53:56;22.53;58.40
68493;HTU21D;55483;51.106;5.984;2023-05-21T07:56:28;22.38;58.57
68493;HTU21D;55483;51.106;5.984;2023-05-21T07:58:54;22.28;59.73
68493;HTU21D;55483;51.106;5.984;2023-05-21T08:01:19;22.26;59.60
68493;HTU21D;55483;51.106;5.984;2023-05-21T08:03:46;22.27;60.37
68493;HTU21D;55483;51.106;5.984;2023-05-21T08:06:12;22.53;60.57
68493;HTU21D;55483;51.106;5.984;2023-05-21T08:08:39;22.78;58.40
68493;HTU21D;55483;51.106;5.984;2023-05-21T08:11:05;22.98;58.03
68493;HTU21D;55483;51.106;5.984;2023-05-21T08:13:32;23.20;56.65
68493;HTU21D;55483;51.106;5.984;2023-05-21T08:15:57;23.35;56.22
68493;HTU21D;55483;51.106;5.984;2023-05-21T08:18:23;23.71;55.68
68493;HTU21D;55483;51.106;5.984;2023-05-21T08:20:51;23.98;54.10
68493;HTU21D;55483;51.106;5.984;2023-05-21T08:23:18;24.48;53.69
68493;HTU21D;55483;51.106;5.984;2023-05-21T08:25:48;24.99;52.65
68493;HTU21D;55483;51.106;5.984;2023-05-21T08:28:14;25.42;50.75
68493;HTU21D;55483;51.106;5.984;2023-05-21T08:30:40;25.62;49.97
68493;HTU21D;55483;51.106;5.984;2023-05-21T08:33:05;25.90;49.72
68493;HTU21D;55483;51.106;5.984;2023-05-21T08:35:32;26.35;48.87
68493;HTU21D;55483;51.106;5.984;2023-05-21T08:38:13;27.09;47.45
68493;HTU21D;55483;51.106;5.984;2023-05-21T08:40:45;28.18;44.72
68493;HTU21D;55483;51.106;5.984;2023-05-21T08:43:12;29.02;42.23
68493;HTU21D;55483;51.106;5.984;2023-05-21T08:45:47;29.00;41.29
68493;HTU21D;55483;51.106;5.984;2023-05-21T08:48:18;29.02;40.97
68493;HTU21D;55483;51.106;5.984;2023-05-21T08:50:45;29.00;41.39
68493;HTU21D;55483;51.106;5.984;2023-05-21T08:53:16;29.18;40.62
68493;HTU21D;55483;51.106;5.984;2023-05-21T08:55:42;29.03;40.97
